Swastika, Canada
Current Conditions -  °F | °C
As of 2:00 PM on Friday 21 Nov 2014 (Local Time) from CYXR Reporting Station
Clear Clear  
Wind Chill:   Ceiling: Unl
Heat Index: 12°   Visibility: 9mi
Dew Point:   Wind: 6mph
Humidity: 67%   Direction: 240°WSW
Pressure: 30.21"   Gusts: NA
Location:  48.1°N, 80.1°W
Report Text: CYXR 211900Z AUTO 24005KT 9SM CLR M11/M16 A3021 RMK SLP255
Loading
Personal Weather Stations






























Interactive Weather Map New forecast layout! Learn more

10-Day Weather Forecast

Advertisements
Track Severe Weather on mobile